Time;durP1;ratioP1;P1;durP2;ratioP2;P2;SDS_P1;SDS_P2;PMS_P1;PMS_P2;Temp;Humidity;BMP_temperature;BMP_pressure;BME280_temperature;BME280_humidity;BME280_pressure;Samples;Min_cycle;Max_cycle;Signal;HPM_P1;HPM_P2
2023/08/03 00:01:51;;;;;;;29.20;5.55;;;;;;;22.78;79.78;99588.91;10455094;28;20049;-79
2023/08/03 00:06:51;;;;;;;;;;;;;;;23.07;78.34;99618.25;10457954;28;20090;-79
2023/08/03 00:11:52;;;;;;;11.63;4.28;;;;;;;22.31;79.34;99545.72;10456486;28;19927;-79
2023/08/03 00:16:53;;;;;;;26.98;5.10;;;;;;;22.31;79.94;99557.34;10456133;28;20043;-79
2023/08/03 00:21:53;;;;;;;9.20;3.97;;;;;;;22.63;80.63;99631.38;10455302;28;20131;-78
2023/08/03 00:26:54;;;;;;;10.93;4.88;;;;;;;22.29;81.17;99613.63;10455821;28;20488;-78
2023/08/03 00:31:55;;;;;;;8.60;4.10;;;;;;;22.31;81.49;99652.03;10455375;28;20143;-79
2023/08/03 00:36:56;;;;;;;9.10;4.55;;;;;;;22.13;82.22;99647.03;10454804;28;20511;-79
2023/08/03 00:41:57;;;;;;;9.32;4.25;;;;;;;22.21;82.70;99662.81;10455126;28;20044;-79
2023/08/03 00:46:58;;;;;;;8.85;4.72;;;;;;;21.67;82.93;99594.56;10454663;28;20048;-79
2023/08/03 00:51:58;;;;;;;8.07;4.70;;;;;;;22.12;83.38;99672.47;10455475;28;20533;-78
2023/08/03 00:56:59;;;;;;;7.00;4.40;;;;;;;21.79;83.07;99609.50;10454855;28;20040;-79
2023/08/03 01:02:00;;;;;;;7.07;4.63;;;;;;;22.07;83.26;99681.34;10453998;28;20041;-78
2023/08/03 01:07:02;;;;;;;21.90;4.85;;;;;;;21.93;83.66;99687.47;10454358;28;20037;-79
2023/08/03 01:12:04;;;;;;;6.70;4.50;;;;;;;21.81;84.32;99693.88;10454909;28;20065;-79
2023/08/03 01:17:05;;;;;;;6.72;4.38;;;;;;;21.82;85.00;99700.09;10452615;28;20056;-79
2023/08/03 01:22:09;;;;;;;40.95;5.20;;;;;;;21.92;85.45;99707.47;10453789;28;20033;-79
2023/08/03 01:27:10;;;;;;;14.95;5.55;;;;;;;21.87;85.73;99703.66;10454127;28;20041;-79
2023/08/03 01:32:11;;;;;;;18.27;5.88;;;;;;;21.79;85.94;99711.44;10450862;28;20037;-79
2023/08/03 01:37:12;;;;;;;21.25;5.22;;;;;;;20.87;86.18;99572.75;10421530;28;20042;-79
2023/08/03 01:42:13;;;;;;;22.48;5.72;;;;;;;21.68;86.64;99721.31;10412738;28;20046;-79
2023/08/03 01:47:14;;;;;;;11.55;4.82;;;;;;;21.50;86.53;99687.38;10411983;28;20045;-79
2023/08/03 01:52:15;;;;;;;13.95;5.20;;;;;;;21.08;86.69;99622.38;10411952;28;20496;-79
2023/08/03 01:57:17;;;;;;;18.13;5.20;;;;;;;21.63;87.14;99708.59;10411942;28;20030;-79
2023/08/03 02:02:18;;;;;;;40.47;7.03;;;;;;;21.72;86.99;99727.88;10412361;28;20044;-79
2023/08/03 02:07:43;;;;;;;45.60;7.43;;;;;;;21.80;89.74;99734.69;10431367;28;20037;-79
2023/08/03 02:12:44;;;;;;;24.92;6.10;;;;;;;21.81;87.07;99730.94;10453509;28;20060;-79
2023/08/03 02:31:20;;;;;;;23.67;5.63;;;;;;;22.03;87.56;99717.31;10532131;28;20405;-80
2023/08/03 02:36:20;;;;;;;22.02;8.93;;;;;;;22.30;86.88;99777.59;10514982;28;20377;-80
2023/08/03 02:41:21;;;;;;;55.85;28.75;;;;;;;22.43;85.82;99778.22;10456980;28;20088;-81
2023/08/03 02:46:22;;;;;;;49.22;17.83;;;;;;;22.69;84.88;99782.72;10448027;28;20049;-82
2023/08/03 02:51:24;;;;;;;20.13;11.90;;;;;;;23.29;82.57;99779.81;10448352;28;20033;-81
2023/08/03 02:56:25;;;;;;;27.00;16.30;;;;;;;23.80;81.20;99769.09;10448309;28;20076;-80
2023/08/03 03:01:26;;;;;;;46.85;8.43;;;;;;;24.62;79.16;99785.38;10447773;28;20090;-81
2023/08/03 03:06:26;;;;;;;15.73;4.75;;;;;;;25.27;76.19;99770.00;10447467;28;20110;-79
2023/08/03 03:11:27;;;;;;;19.05;4.75;;;;;;;25.87;74.41;99769.94;10448085;28;20037;-80
2023/08/03 03:16:28;;;;;;;11.55;4.35;;;;;;;26.61;72.16;99792.47;10447665;28;20045;-79
2023/08/03 03:21:28;;;;;;;16.42;4.80;;;;;;;27.15;70.24;99780.44;10446140;28;20037;-80
2023/08/03 03:26:29;;;;;;;104.43;9.20;;;;;;;28.15;67.17;99769.47;10446872;28;20044;-81
2023/08/03 03:31:30;;;;;;;38.53;4.80;;;;;;;29.50;63.36;99783.88;10447560;28;20484;-81
2023/08/03 03:36:31;;;;;;;7.55;3.47;;;;;;;30.04;60.26;99757.44;10446116;28;20033;-78
2023/08/03 03:41:32;;;;;;;12.32;3.65;;;;;;;30.80;58.05;99779.31;10450318;28;20095;-83
2023/08/03 03:46:32;;;;;;;7.25;3.47;;;;;;;31.09;56.24;99773.28;10444281;28;20041;-81
2023/08/03 03:51:33;;;;;;;9.20;3.30;;;;;;;31.62;54.91;99774.22;10438953;28;20144;-83
2023/08/03 03:56:34;;;;;;;32.10;4.45;;;;;;;31.94;53.20;99723.47;10442827;28;20048;-83
2023/08/03 04:01:35;;;;;;;7.90;3.50;;;;;;;31.72;52.85;99699.75;10437674;28;20033;-81
2023/08/03 04:06:35;;;;;;;10.13;3.35;;;;;;;32.77;51.63;99763.50;10442691;28;20045;-82
2023/08/03 04:11:36;;;;;;;14.18;3.85;;;;;;;33.19;50.32;99780.94;10441338;28;20041;-79
2023/08/03 04:16:37;;;;;;;7.57;3.10;;;;;;;33.30;49.89;99781.38;10446797;28;20052;-80
2023/08/03 04:21:38;;;;;;;8.48;3.33;;;;;;;33.59;49.14;99788.78;10437679;28;20037;-79
2023/08/03 04:26:38;;;;;;;8.48;3.65;;;;;;;33.48;48.77;99767.50;10438368;28;20126;-80
2023/08/03 04:31:39;;;;;;;4.97;3.25;;;;;;;33.66;47.92;99774.50;10442711;28;20163;-80
2023/08/03 04:36:42;;;;;;;4.38;3.08;;;;;;;33.50;47.74;99743.16;10425262;28;20045;-82
2023/08/03 04:41:43;;;;;;;6.35;3.38;;;;;;;33.75;47.05;99777.19;10418478;28;20048;-82
2023/08/03 04:46:44;;;;;;;5.65;3.50;;;;;;;33.67;46.79;99769.81;10414581;28;20416;-81
2023/08/03 04:51:45;;;;;;;6.93;3.20;;;;;;;33.47;47.22;99769.41;10414955;28;20204;-79
2023/08/03 04:56:46;;;;;;;10.25;3.22;;;;;;;33.21;48.39;99772.38;10416087;28;20048;-80
2023/08/03 05:01:46;;;;;;;5.35;3.15;;;;;;;33.06;46.66;99772.97;10413861;28;20551;-80
2023/08/03 05:06:47;;;;;;;6.00;3.15;;;;;;;32.59;46.73;99761.97;10414830;28;20049;-79
2023/08/03 05:11:48;;;;;;;4.57;3.20;;;;;;;31.38;47.65;99662.97;10415730;28;20045;-80
2023/08/03 05:16:49;;;;;;;4.68;3.15;;;;;;;31.26;48.88;99679.25;10415960;28;20132;-80
2023/08/03 05:21:50;;;;;;;5.63;3.47;;;;;;;31.58;48.88;99751.28;10413879;28;20041;-79
2023/08/03 05:26:51;;;;;;;7.32;3.47;;;;;;;31.41;49.49;99767.72;10414856;28;20068;-79
2023/08/03 05:31:52;;;;;;;9.65;3.40;;;;;;;31.48;50.81;99762.59;10413690;28;20056;-79
2023/08/03 05:36:52;;;;;;;9.90;3.67;;;;;;;31.43;50.73;99749.00;10414418;28;20049;-79
2023/08/03 05:41:54;;;;;;;7.22;3.47;;;;;;;31.38;51.55;99744.47;10414795;28;20038;-79
2023/08/03 05:46:54;;;;;;;6.70;2.97;;;;;;;31.25;50.00;99707.00;10413801;28;20041;-79
2023/08/03 05:51:55;;;;;;;10.02;3.50;;;;;;;31.23;50.89;99701.84;10414137;28;20135;-79
2023/08/03 05:56:56;;;;;;;6.53;3.58;;;;;;;31.81;49.77;99743.69;10414401;28;20428;-79
2023/08/03 06:01:57;;;;;;;5.70;3.10;;;;;;;31.75;48.19;99710.06;10414013;28;20128;-79
2023/08/03 06:07:00;;;;;;;5.47;3.05;;;;;;;32.38;48.29;99751.66;10412498;28;20037;-79
2023/08/03 06:12:01;;;;;;;4.95;2.97;;;;;;;32.67;47.33;99756.44;10412947;28;20044;-79
2023/08/03 06:17:02;;;;;;;5.82;2.92;;;;;;;32.18;46.71;99686.41;10412765;28;20046;-79
2023/08/03 06:22:21;;;;;;;7.13;2.80;;;;;;;32.41;46.41;99697.97;10413578;28;20044;-79
2023/08/03 06:27:22;;;;;;;4.90;2.83;;;;;;;32.00;46.19;99649.94;10413418;28;20063;-79
2023/08/03 06:32:32;;;;;;;5.32;2.83;;;;;;;32.43;45.42;99690.22;10412607;28;20404;-79
2023/08/03 06:37:32;;;;;;;7.93;3.10;;;;;;;32.68;45.23;99719.56;10413468;28;20103;-78
2023/08/03 06:42:33;;;;;;;6.82;2.75;;;;;;;32.76;44.21;99733.56;10413546;28;20041;-78
2023/08/03 06:47:34;;;;;;;4.47;2.72;;;;;;;32.78;43.28;99726.63;10412856;28;20053;-78
2023/08/03 06:52:35;;;;;;;5.15;2.88;;;;;;;33.15;43.20;99771.75;10412895;28;20033;-79
2023/08/03 06:57:36;;;;;;;7.80;3.20;;;;;;;33.22;43.08;99726.38;10413044;28;20447;-77
2023/08/03 07:02:37;;;;;;;7.07;2.92;;;;;;;33.60;43.34;99740.84;10412748;28;20094;-77
2023/08/03 07:07:38;;;;;;;10.65;3.40;;;;;;;33.80;42.45;99732.88;10411945;28;20092;-77
2023/08/03 07:12:38;;;;;;;9.60;2.63;;;;;;;33.93;41.80;99742.03;10412334;28;20065;-76
2023/08/03 07:17:39;;;;;;;7.10;2.45;;;;;;;33.66;40.51;99688.31;10419420;28;20052;-76
2023/08/03 07:22:40;;;;;;;4.65;2.53;;;;;;;33.77;38.75;99728.84;10418719;28;20045;-77
2023/08/03 07:27:41;;;;;;;5.57;2.60;;;;;;;33.68;39.92;99675.00;10420373;28;20050;-76
2023/08/03 07:32:42;;;;;;;4.82;2.53;;;;;;;34.30;39.79;99740.19;10420157;28;20047;-76
2023/08/03 07:37:43;;;;;;;7.43;2.53;;;;;;;34.24;40.05;99702.97;10418358;28;20049;-77
2023/08/03 07:42:43;;;;;;;53.92;5.70;;;;;;;34.11;40.59;99671.03;10419707;28;20432;-76
2023/08/03 07:47:44;;;;;;;4.50;2.55;;;;;;;34.26;40.24;99701.47;10418402;28;20041;-77
2023/08/03 07:52:45;;;;;;;5.97;2.30;;;;;;;34.68;39.68;99723.38;10418849;28;20037;-77
2023/08/03 07:57:45;;;;;;;8.02;2.40;;;;;;;34.74;39.63;99707.38;10418922;28;20107;-77
2023/08/03 08:02:46;;;;;;;4.60;2.50;;;;;;;34.35;39.36;99653.69;10418369;28;20492;-77
2023/08/03 08:07:47;;;;;;;13.63;3.00;;;;;;;34.69;39.31;99664.28;10418189;28;20106;-76
2023/08/03 08:12:47;;;;;;;5.18;2.35;;;;;;;34.86;38.97;99695.53;10417540;28;20037;-77
2023/08/03 08:17:48;;;;;;;7.32;2.70;;;;;;;34.71;38.26;99648.19;10416138;28;20038;-77
2023/08/03 08:22:49;;;;;;;5.85;2.30;;;;;;;34.60;38.42;99615.91;10418269;28;20041;-76
2023/08/03 08:27:52;;;;;;;6.68;2.50;;;;;;;34.96;38.77;99672.97;10416013;28;20057;-75
2023/08/03 08:32:52;;;;;;;6.47;2.67;;;;;;;35.14;38.67;99701.16;10417054;28;20055;-76
2023/08/03 08:37:53;;;;;;;3.67;2.35;;;;;;;35.10;38.28;99645.03;10416327;28;20041;-77
2023/08/03 08:42:56;;;;;;;6.57;2.30;;;;;;;35.39;37.99;99664.03;10416054;28;20504;-76
2023/08/03 08:47:57;;;;;;;11.00;3.30;;;;;;;35.70;39.09;99686.59;10416073;28;20037;-76
2023/08/03 08:52:58;;;;;;;6.33;2.20;;;;;;;35.81;37.98;99684.91;10417095;28;20099;-76
2023/08/03 08:57:59;;;;;;;6.57;2.50;;;;;;;36.01;36.55;99696.91;10416350;28;20041;-77
2023/08/03 09:03:01;;;;;;;3.87;2.27;;;;;;;35.82;35.33;99673.53;10417069;28;20054;-77
2023/08/03 09:08:12;;;;;;;9.02;2.38;;;;;;;36.02;36.45;99677.22;10415761;28;20037;-75
2023/08/03 09:13:31;;;;;;;8.07;2.35;;;;;;;35.84;35.37;99649.09;10427112;28;20040;-80
2023/08/03 09:18:43;;;;;;;5.53;2.47;;;;;;;35.93;35.50;99648.94;10433090;28;20077;-78
2023/08/03 09:23:44;;;;;;;7.45;3.13;;;;;;;35.98;36.22;99659.72;10436571;28;20040;-78
2023/08/03 09:28:45;;;;;;;11.65;2.70;;;;;;;35.59;36.31;99600.66;10439277;28;20060;-80
2023/08/03 09:33:54;;;;;;;4.93;2.10;;;;;;;35.60;34.83;99564.41;10435577;28;20064;-77
2023/08/03 09:39:14;;;;;;;3.63;2.03;;;;;;;36.42;35.33;99670.72;10437603;28;20043;-76
2023/08/03 09:44:17;;;;;;;19.13;3.05;;;;;;;36.26;35.95;99654.16;10432817;28;20051;-77
2023/08/03 09:49:17;;;;;;;3.88;2.20;;;;;;;36.19;35.34;99639.31;10438002;28;20073;-75
2023/08/03 09:54:32;;;;;;;34.70;3.58;;;;;;;36.23;35.16;99652.09;10425556;28;20073;-76
2023/08/03 09:59:36;;;;;;;2.80;1.77;;;;;;;36.26;34.72;99639.53;10423943;28;20515;-76
2023/08/03 10:04:42;;;;;;;9.25;2.03;;;;;;;36.46;34.25;99649.47;10438535;28;20145;-76
2023/08/03 10:09:45;;;;;;;4.47;2.40;;;;;;;36.42;34.63;99642.25;10433327;28;20045;-76
2023/08/03 10:14:51;;;;;;;6.47;2.13;;;;;;;36.43;34.44;99624.50;10436137;28;20041;-76
2023/08/03 10:19:52;;;;;;;4.22;1.80;;;;;;;36.14;34.00;99587.88;10434121;28;20086;-76
2023/08/03 10:25:17;;;;;;;3.93;1.90;;;;;;;36.63;32.96;99645.56;10431474;28;20111;-76
2023/08/03 10:30:18;;;;;;;7.15;1.90;;;;;;;35.82;34.02;99529.03;10441473;28;20084;-78
2023/08/03 10:35:40;;;;;;;10.80;2.10;;;;;;;36.29;33.30;99576.00;10435049;28;20088;-76
2023/08/03 10:40:41;;;;;;;5.32;1.83;;;;;;;35.74;33.06;99536.31;10432888;28;20100;-79
2023/08/03 10:45:42;;;;;;;9.77;2.50;;;;;;;36.02;33.87;99637.69;10437196;28;20107;-77
2023/08/03 10:51:00;;;;;;;4.07;1.63;;;;;;;35.79;32.90;99627.25;10434891;28;20048;-78
2023/08/03 10:56:10;;;;;;;7.88;2.00;;;;;;;35.99;32.88;99614.34;10441764;28;20045;-80
2023/08/03 11:01:20;;;;;;;19.25;2.20;;;;;;;36.10;33.74;99596.06;10441235;28;20038;-76
2023/08/03 11:06:22;;;;;;;4.57;1.77;;;;;;;36.24;34.10;99579.03;10439246;28;20044;-72
2023/08/03 11:11:23;;;;;;;;;;;;;;;36.87;33.10;99635.41;10441860;28;20086;-72
2023/08/03 11:16:24;;;;;;;;;;;;;;;36.97;33.40;99630.06;10443333;28;19920;-73
2023/08/03 11:21:25;;;;;;;6.17;1.63;;;;;;;36.26;32.96;99570.38;10437808;28;19917;-73
2023/08/03 11:26:27;;;;;;;4.50;1.77;;;;;;;35.38;32.95;99454.50;10444536;28;20042;-73
2023/08/03 11:31:28;;;;;;;4.20;1.80;;;;;;;35.58;33.49;99561.19;10438927;28;20049;-73
2023/08/03 11:36:29;;;;;;;4.60;1.60;;;;;;;35.88;34.14;99619.59;10440327;28;20044;-73
2023/08/03 11:41:30;;;;;;;6.18;1.77;;;;;;;35.35;33.87;99538.06;10441591;28;20120;-73
2023/08/03 11:46:31;;;;;;;7.70;2.35;;;;;;;35.61;34.10;99612.97;10437976;28;20127;-72
2023/08/03 11:51:36;;;;;;;8.30;2.70;;;;;;;35.30;34.10;99575.03;10445012;28;20033;-73
2023/08/03 11:56:39;;;;;;;4.63;1.80;;;;;;;35.03;33.52;99542.66;10437357;28;20033;-73
2023/08/03 12:01:48;;;;;;;3.25;1.73;;;;;;;34.84;33.58;99557.13;10440669;28;20076;-72
2023/08/03 12:06:54;;;;;;;4.15;1.77;;;;;;;35.38;33.33;99606.38;10436494;28;20034;-72
2023/08/03 12:12:02;;;;;;;4.57;1.67;;;;;;;35.88;31.92;99614.06;10436940;28;20041;-72
2023/08/03 12:17:09;;;;;;;9.68;1.90;;;;;;;36.06;32.86;99597.94;10437078;28;20038;-72
2023/08/03 12:22:11;;;;;;;12.85;2.53;;;;;;;36.02;32.33;99539.00;10435307;28;20091;-72
2023/08/03 12:27:12;;;;;;;9.75;1.88;;;;;;;36.30;32.09;99547.16;10446882;28;20068;-72
2023/08/03 12:32:13;;;;;;;12.93;2.45;;;;;;;36.46;32.13;99588.59;10442412;28;20041;-72
2023/08/03 12:37:14;;;;;;;6.20;2.00;;;;;;;36.07;31.43;99524.91;10429697;28;20041;-71
2023/08/03 12:42:15;;;;;;;9.38;2.08;;;;;;;36.23;31.95;99554.50;10419347;28;20049;-72
2023/08/03 12:47:15;;;;;;;5.00;1.90;;;;;;;35.67;31.96;99461.56;10425362;28;20056;-72
2023/08/03 12:52:16;;;;;;;15.07;2.47;;;;;;;36.07;32.45;99535.97;10428617;28;20038;-72
2023/08/03 12:57:17;;;;;;;2.92;1.70;;;;;;;35.93;32.03;99523.75;10414700;28;20050;-72
2023/08/03 13:02:18;;;;;;;4.27;1.80;;;;;;;34.91;31.97;99381.53;10422197;28;20037;-72
2023/08/03 13:07:19;;;;;;;6.60;1.80;;;;;;;34.62;33.34;99365.38;10434612;28;20056;-72
2023/08/03 13:12:20;;;;;;;8.63;2.33;;;;;;;34.86;33.29;99422.38;10437774;28;20083;-71
2023/08/03 13:17:21;;;;;;;5.22;1.80;;;;;;;35.16;32.86;99517.44;10421963;28;20036;-72
2023/08/03 13:22:22;;;;;;;7.03;1.90;;;;;;;35.05;32.81;99510.81;10454965;28;20049;-74
2023/08/03 13:27:25;;;;;;;10.80;2.05;;;;;;;34.87;31.70;99482.72;10438443;28;20440;-72
2023/08/03 13:32:26;;;;;;;7.15;1.95;;;;;;;34.65;32.07;99477.75;10429215;28;20496;-71
2023/08/03 13:37:26;;;;;;;12.13;2.10;;;;;;;34.47;33.46;99447.69;10413409;28;20041;-72
2023/08/03 13:42:27;;;;;;;5.88;2.15;;;;;;;34.18;33.26;99398.38;10430114;28;20415;-72
2023/08/03 13:47:28;;;;;;;7.45;1.80;;;;;;;34.32;33.01;99448.41;10432842;28;20083;-72
2023/08/03 13:52:29;;;;;;;5.05;2.13;;;;;;;33.34;33.63;99316.31;10438272;28;20041;-72
2023/08/03 13:57:30;;;;;;;6.70;2.33;;;;;;;33.95;34.31;99447.66;10413726;28;20148;-72
2023/08/03 14:02:31;;;;;;;11.32;1.90;;;;;;;33.97;34.17;99459.13;10423608;28;20052;-72
2023/08/03 14:07:32;;;;;;;6.35;2.10;;;;;;;34.08;34.77;99491.41;10414325;28;20045;-72
2023/08/03 14:12:32;;;;;;;14.88;3.38;;;;;;;33.84;35.21;99480.38;10412930;28;20044;-73
2023/08/03 14:17:33;;;;;;;12.20;2.20;;;;;;;34.09;34.85;99544.56;10433214;28;20048;-72
2023/08/03 14:22:34;;;;;;;18.00;2.78;;;;;;;33.90;35.50;99523.09;10430397;28;20072;-73
2023/08/03 14:27:35;;;;;;;20.52;3.30;;;;;;;33.34;36.47;99520.00;10411705;28;20092;-72
2023/08/03 14:32:36;;;;;;;48.42;4.25;;;;;;;32.73;37.78;99551.59;10413831;28;20122;-73
2023/08/03 14:37:37;;;;;;;52.58;3.70;;;;;;;31.72;40.11;99572.63;10412564;28;20174;-73
2023/08/03 14:42:38;;;;;;;18.60;2.63;;;;;;;31.19;41.50;99623.22;10411057;28;20687;-74
2023/08/03 14:47:39;;;;;;;107.55;25.52;;;;;;;30.36;42.97;99596.63;10410972;28;20034;-73
2023/08/03 14:52:39;;;;;;;44.13;11.95;;;;;;;29.60;43.71;99542.78;10412166;28;20068;-72
2023/08/03 14:57:40;;;;;;;21.48;5.00;;;;;;;29.78;43.94;99645.00;10412267;28;20523;-72
2023/08/03 15:02:43;;;;;;;17.73;5.22;;;;;;;29.47;44.13;99636.72;10411150;28;20397;-72
2023/08/03 15:07:46;;;;;;;14.93;3.35;;;;;;;29.31;45.32;99617.13;10412236;28;20489;-72
2023/08/03 15:12:47;;;;;;;11.60;2.65;;;;;;;28.37;45.91;99479.28;10411297;28;20455;-73
2023/08/03 15:17:48;;;;;;;15.20;2.88;;;;;;;28.88;46.18;99543.72;10410778;28;20038;-73
2023/08/03 15:22:50;;;;;;;11.60;2.95;;;;;;;29.62;46.17;99644.59;10412270;28;20033;-73
2023/08/03 15:27:51;;;;;;;6.30;2.40;;;;;;;28.90;45.85;99523.19;10411179;28;20064;-74
2023/08/03 15:32:52;;;;;;;7.18;2.35;;;;;;;28.77;44.76;99513.09;10433292;28;20049;-72
2023/08/03 15:37:53;;;;;;;20.63;2.60;;;;;;;29.28;44.54;99617.75;10458970;28;20045;-73
2023/08/03 15:42:54;;;;;;;18.88;2.83;;;;;;;28.07;46.10;99508.88;10445963;28;20037;-71
2023/08/03 15:47:55;;;;;;;9.85;2.85;;;;;;;27.71;46.69;99484.19;10418929;28;20045;-72
2023/08/03 15:52:56;;;;;;;19.45;2.67;;;;;;;28.37;44.43;99529.25;10417047;28;20132;-70
2023/08/03 15:57:57;;;;;;;13.57;2.10;;;;;;;29.58;42.30;99673.66;10419153;28;20492;-71
2023/08/03 16:02:58;;;;;;;17.23;2.45;;;;;;;28.85;40.91;99506.09;10419740;28;20045;-73
2023/08/03 16:07:58;;;;;;;8.57;2.67;;;;;;;29.04;40.85;99503.19;10416089;28;20037;-73
2023/08/03 16:13:02;;;;;;;12.38;2.42;;;;;;;29.68;40.36;99605.03;10417437;28;20041;-73
2023/08/03 16:18:04;;;;;;;16.00;3.10;;;;;;;30.27;40.17;99688.94;10441932;28;20049;-73
2023/08/03 16:23:05;;;;;;;15.38;3.42;;;;;;;29.61;40.05;99560.81;10417015;28;20056;-73
2023/08/03 16:28:06;;;;;;;15.48;6.75;;;;;;;29.67;40.01;99558.78;10439256;28;20061;-72
2023/08/03 16:33:07;;;;;;;30.63;14.25;;;;;;;29.75;39.94;99588.94;10457499;28;20182;-73
2023/08/03 16:38:08;;;;;;;32.33;10.10;;;;;;;29.55;40.37;99562.06;10456150;28;20083;-72
2023/08/03 16:43:09;;;;;;;19.60;7.00;;;;;;;29.37;40.42;99533.00;10457880;28;20064;-73
2023/08/03 16:48:10;;;;;;;18.85;3.47;;;;;;;30.13;40.46;99661.63;10473649;28;20087;-73
2023/08/03 16:53:11;;;;;;;8.77;2.20;;;;;;;29.46;40.30;99562.03;10456942;28;20131;-74
2023/08/03 16:58:12;;;;;;;20.73;3.30;;;;;;;29.00;40.84;99497.50;10455437;28;20044;-74
2023/08/03 17:03:12;;;;;;;12.48;3.45;;;;;;;29.47;40.11;99603.91;10455765;28;20127;-73
2023/08/03 17:08:13;;;;;;;17.02;7.22;;;;;;;29.74;38.65;99694.09;10448966;28;20504;-70
2023/08/03 17:13:15;;;;;;;16.85;3.10;;;;;;;29.99;39.73;99835.03;10439285;28;20099;-71
2023/08/03 17:18:15;;;;;;;75.50;8.23;;;;;;;28.78;47.30;99856.38;10450159;28;20052;-76
2023/08/03 17:23:16;;;;;;;34.70;4.82;;;;;;;27.49;52.44;99864.00;10456259;28;20499;-74
2023/08/03 17:28:17;;;;;;;41.03;5.63;;;;;;;26.14;54.51;99853.84;10452393;28;20535;-71
2023/08/03 17:33:18;;;;;;;18.95;3.05;;;;;;;25.76;57.02;100003.16;10423976;28;20045;-71
2023/08/03 17:38:19;;;;;;;8.23;3.25;;;;;;;24.74;59.95;100011.34;10423611;28;20062;-71
2023/08/03 17:43:20;;;;;;;15.27;4.20;;;;;;;24.23;63.69;100087.22;10414458;28;20630;-69
2023/08/03 17:48:23;;;;;;;16.25;4.53;;;;;;;23.33;68.13;100058.16;10412963;28;20409;-71
2023/08/03 17:53:24;;;;;;;10.37;3.87;;;;;;;23.23;70.12;100123.13;10414808;28;20041;-71
2023/08/03 17:58:25;;;;;;;8.73;3.72;;;;;;;21.63;72.78;99957.28;10431368;28;20037;-71
2023/08/03 18:03:25;;;;;;;15.27;4.55;;;;;;;21.05;76.06;99961.25;10448204;28;20514;-70
2023/08/03 18:08:26;;;;;;;13.18;4.22;;;;;;;21.26;79.07;100115.56;10421975;28;20506;-69
2023/08/03 18:13:27;;;;;;;8.45;3.40;;;;;;;20.68;81.88;100130.97;10422570;28;20049;-71
2023/08/03 18:18:29;;;;;;;12.85;3.85;;;;;;;20.58;83.64;100150.47;10413186;28;20041;-69
2023/08/03 18:56:18;;;;;;;4.90;1.00;;;;;;;21.13;86.08;100128.31;10513900;27;1751120;-70
2023/08/03 19:01:19;;;;;;;3.83;0.98;;;;;;;21.06;84.62;100114.16;10573951;28;20135;-70
2023/08/03 19:06:20;;;;;;;2.38;1.17;;;;;;;21.21;84.70;100148.72;10573636;28;20074;-71
2023/08/03 19:11:21;;;;;;;4.68;1.08;;;;;;;19.93;84.02;99961.94;10555607;28;20075;-68
2023/08/03 19:16:22;;;;;;;2.15;0.82;;;;;;;20.27;83.87;100024.88;10555306;28;20097;-69
2023/08/03 19:21:23;;;;;;;1.90;1.00;;;;;;;20.92;83.61;100129.81;10572832;28;20054;-70
2023/08/03 19:26:24;;;;;;;3.90;0.93;;;;;;;20.35;83.32;100029.91;10553889;28;20402;-70
2023/08/03 19:31:25;;;;;;;2.00;0.90;;;;;;;21.01;83.72;100145.63;10554395;28;20036;-71
2023/08/03 19:36:26;;;;;;;3.25;1.05;;;;;;;21.15;84.68;100155.09;10572634;28;20031;-70
2023/08/03 19:41:27;;;;;;;2.33;1.27;;;;;;;20.63;85.49;100093.06;10536901;28;20403;-70
2023/08/03 19:46:28;;;;;;;6.32;1.45;;;;;;;20.02;86.03;99973.97;10553688;28;20127;-71
2023/08/03 19:51:29;;;;;;;4.00;1.58;;;;;;;21.00;87.64;100119.66;10571746;28;20414;-69
2023/08/03 20:10:13;;;;;;;6.57;2.28;;;;;;;21.77;97.39;100149.66;10506467;27;1907168;-70
2023/08/03 20:15:15;;;;;;;7.28;2.40;;;;;;;21.88;96.62;100162.28;10555580;28;20131;-71
2023/08/03 20:20:16;;;;;;;10.70;2.85;;;;;;;21.56;96.79;100120.69;10545865;28;20498;-70
2023/08/03 20:25:17;;;;;;;4.85;2.40;;;;;;;21.93;97.17;100166.13;10528520;28;20082;-71
2023/08/03 20:30:18;;;;;;;7.47;2.95;;;;;;;21.74;98.07;100127.72;10531404;28;20047;-69
2023/08/03 20:35:18;;;;;;;7.47;3.10;;;;;;;21.94;99.03;100162.38;10530685;28;20046;-69
2023/08/03 20:40:19;;;;;;;8.52;3.22;;;;;;;21.89;100.00;100160.38;10537979;28;20040;-71
2023/08/03 20:45:20;;;;;;;6.65;3.00;;;;;;;21.50;100.00;100113.56;10555331;28;20048;-70
2023/08/03 20:50:21;;;;;;;4.55;2.55;;;;;;;21.87;100.00;100160.66;10529548;28;20047;-72
2023/08/03 20:55:21;;;;;;;5.13;2.45;;;;;;;21.78;100.00;100145.09;10568630;28;20036;-71
2023/08/03 21:00:23;;;;;;;6.00;2.45;;;;;;;21.66;99.91;100128.97;10554382;28;20050;-72
2023/08/03 21:05:24;;;;;;;12.02;3.00;;;;;;;21.86;100.00;100156.28;10571477;28;20050;-70
2023/08/03 21:10:25;;;;;;;4.32;2.75;;;;;;;21.74;100.00;100168.28;10501265;28;20496;-70
2023/08/03 21:15:27;;;;;;;20.90;2.67;;;;;;;21.40;100.00;100114.22;10484030;28;20055;-71
2023/08/03 21:20:31;;;;;;;4.00;2.20;;;;;;;21.67;100.00;100173.03;10501744;28;20584;-72
2023/08/03 21:25:32;;;;;;;4.05;2.13;;;;;;;21.58;100.00;100151.81;10500415;28;20036;-72
2023/08/03 21:30:33;;;;;;;3.60;2.03;;;;;;;20.98;100.00;100039.72;10500951;28;20036;-72
2023/08/03 21:35:35;;;;;;;3.20;1.90;;;;;;;21.57;100.00;100130.44;10501152;28;20067;-72
2023/08/03 21:40:37;;;;;;;6.55;1.80;;;;;;;20.57;100.00;99964.50;10501061;28;20041;-72
2023/08/03 21:45:37;;;;;;;3.95;1.75;;;;;;;21.56;100.00;100102.56;10481944;28;20048;-73
2023/08/03 21:50:38;;;;;;;4.97;2.40;;;;;;;21.33;100.00;100054.06;10482341;28;20044;-71
2023/08/03 21:55:39;;;;;;;5.70;2.00;;;;;;;20.71;100.00;99939.66;10499123;28;20048;-72
2023/08/03 22:00:40;;;;;;;5.05;1.92;;;;;;;21.43;100.00;100029.94;10498963;28;20518;-72
2023/08/03 22:05:41;;;;;;;4.53;2.45;;;;;;;21.15;100.00;99974.13;10498730;28;20051;-72
2023/08/03 22:10:42;;;;;;;6.40;2.38;;;;;;;20.46;100.00;99850.97;10499693;28;20041;-72
2023/08/03 22:15:43;;;;;;;3.63;2.13;;;;;;;21.21;100.00;99975.84;10480647;28;20044;-72
2023/08/03 22:20:44;;;;;;;4.38;2.10;;;;;;;20.07;100.00;99771.81;10498381;28;20037;-72
2023/08/03 22:25:44;;;;;;;6.40;2.28;;;;;;;20.52;100.00;99863.53;10498362;28;20048;-72
2023/08/03 22:30:45;;;;;;;4.35;2.00;;;;;;;20.83;100.00;99893.69;10480639;28;20101;-72
2023/08/03 22:35:46;;;;;;;4.82;1.92;;;;;;;21.40;100.00;99943.97;10479967;28;20416;-72
2023/08/03 22:40:56;;;;;;;4.88;2.00;;;;;;;20.83;100.00;99847.78;10480157;28;20131;-71
2023/08/03 22:45:57;;;;;;;5.05;2.20;;;;;;;20.84;100.00;99860.22;10479067;28;20044;-71
2023/08/03 22:50:57;;;;;;;4.63;2.35;;;;;;;21.38;100.00;99910.97;10496815;28;20413;-71
2023/08/03 22:56:03;;;;;;;4.70;2.03;;;;;;;21.41;100.00;99903.19;10479283;28;20032;-70
2023/08/03 23:01:20;;;;;;;5.38;2.00;;;;;;;21.43;100.00;99917.28;10479801;28;20537;-71
2023/08/03 23:06:22;;;;;;;3.25;2.10;;;;;;;21.40;100.00;99909.66;10478836;28;20056;-71
2023/08/03 23:11:23;;;;;;;3.08;1.88;;;;;;;21.18;100.00;99879.91;10496745;28;20090;-71
2023/08/03 23:16:24;;;;;;;5.68;2.30;;;;;;;20.71;100.00;99820.09;10478571;28;20037;-71
2023/08/03 23:21:25;;;;;;;7.07;3.47;;;;;;;20.67;100.00;99859.41;10478689;28;20077;-71
2023/08/03 23:26:25;;;;;;;4.68;2.42;;;;;;;20.52;100.00;99839.25;10477731;28;20066;-72
2023/08/03 23:31:26;;;;;;;4.55;2.00;;;;;;;20.69;100.00;99860.00;10496166;28;20041;-71
2023/08/03 23:36:27;;;;;;;34.67;20.60;;;;;;;21.35;100.00;99958.19;10477932;28;20123;-71
2023/08/03 23:41:28;;;;;;;5.97;4.40;;;;;;;20.87;100.00;99880.50;10495575;28;20430;-71
2023/08/03 23:46:29;;;;;;;6.20;3.78;;;;;;;20.68;100.00;99837.59;10495608;28;20068;-71
2023/08/03 23:51:29;;;;;;;8.73;4.40;;;;;;;21.50;100.00;99954.91;10496994;28;20047;-72
2023/08/03 23:56:30;;;;;;;7.38;3.63;;;;;;;20.48;100.00;99821.84;10477627;28;20044;-70
